Time;durP1;ratioP1;P1;durP2;ratioP2;P2;SDS_P1;SDS_P2;PMS_P1;PMS_P2;Temp;Humidity;BMP_temperature;BMP_pressure;BME280_temperature;BME280_humidity;BME280_pressure;Samples;Min_cycle;Max_cycle;Signal;HPM_P1;HPM_P2
2021/03/17 00:00:59;;;;;;;2.80;1.30;;;;;;;;;;5081088;28;20516;-74
2021/03/17 00:03:29;;;;;;;5.93;1.30;;;;;;;;;;5080450;28;20489;-75
2021/03/17 00:05:57;;;;;;;2.53;1.20;;;;;;;;;;5080509;28;20465;-74
2021/03/17 00:08:25;;;;;;;4.90;1.13;;;;;;;;;;5080339;28;20801;-74
2021/03/17 00:10:57;;;;;;;7.30;1.10;;;;;;;;;;5080286;28;20461;-74
2021/03/17 00:13:25;;;;;;;3.07;1.20;;;;;;;;;;5080498;28;20472;-74
2021/03/17 00:15:57;;;;;;;5.23;1.27;;;;;;;;;;5080678;28;20880;-74
2021/03/17 00:18:25;;;;;;;4.37;0.90;;;;;;;;;;5079217;28;20460;-75
2021/03/17 00:20:52;;;;;;;3.20;1.00;;;;;;;;;;5081046;28;20757;-74
2021/03/17 00:23:22;;;;;;;6.00;1.30;;;;;;;;;;5079642;28;20889;-74
2021/03/17 00:25:50;;;;;;;3.70;1.40;;;;;;;;;;5078204;28;20472;-75
2021/03/17 00:28:17;;;;;;;6.00;1.37;;;;;;;;;;5080751;28;20460;-74
2021/03/17 00:30:45;;;;;;;4.83;1.40;;;;;;;;;;5079177;28;20968;-74
2021/03/17 00:33:13;;;;;;;3.80;1.20;;;;;;;;;;5079366;28;20461;-74
2021/03/17 00:35:41;;;;;;;2.93;1.10;;;;;;;;;;5079725;28;20468;-74
2021/03/17 00:38:08;;;;;;;8.63;1.13;;;;;;;;;;5078987;28;20519;-74
2021/03/17 00:40:37;;;;;;;2.73;1.00;;;;;;;;;;5080384;28;20472;-74
2021/03/17 00:43:04;;;;;;;7.90;2.70;;;;;;;;;;5078263;28;20465;-74
2021/03/17 00:45:31;;;;;;;11.00;2.50;;;;;;;;;;5080337;28;20478;-74
2021/03/17 00:47:59;;;;;;;8.57;1.13;;;;;;;;;;5078809;28;20462;-74
2021/03/17 00:50:26;;;;;;;5.63;1.53;;;;;;;;;;5079552;28;20447;-74
2021/03/17 00:52:54;;;;;;;2.87;1.30;;;;;;;;;;5080369;28;20453;-74
2021/03/17 00:55:21;;;;;;;3.80;1.60;;;;;;;;;;5078504;28;20522;-73
2021/03/17 00:57:49;;;;;;;5.27;1.43;;;;;;;;;;5080596;28;20475;-74
2021/03/17 01:00:17;;;;;;;4.77;1.37;;;;;;;;;;5078780;28;20449;-74
2021/03/17 01:02:47;;;;;;;3.60;1.33;;;;;;;;;;5079958;28;20471;-74
2021/03/17 01:05:14;;;;;;;2.80;1.17;;;;;;;;;;5079979;28;20516;-74
2021/03/17 01:07:42;;;;;;;3.53;1.07;;;;;;;;;;5077593;28;21080;-74
2021/03/17 01:10:10;;;;;;;10.10;1.73;;;;;;;;;;5079841;28;20807;-74
2021/03/17 01:12:38;;;;;;;5.13;1.70;;;;;;;;;;5079022;28;20678;-74
2021/03/17 01:15:07;;;;;;;4.93;1.00;;;;;;;;;;5079194;28;20453;-74
2021/03/17 01:17:35;;;;;;;3.47;1.40;;;;;;;;;;5080251;28;20479;-73
2021/03/17 01:20:02;;;;;;;4.53;1.30;;;;;;;;;;5077726;28;20467;-74
2021/03/17 01:22:30;;;;;;;2.53;0.80;;;;;;;;;;5079760;28;20460;-74
2021/03/17 01:24:57;;;;;;;5.23;1.73;;;;;;;;;;5078006;28;20492;-74
2021/03/17 01:27:24;;;;;;;4.60;2.40;;;;;;;;;;5077189;28;20471;-74
2021/03/17 01:29:52;;;;;;;18.27;1.97;;;;;;;;;;5079173;28;20456;-74
2021/03/17 01:32:20;;;;;;;3.80;1.70;;;;;;;;;;5077394;28;20965;-74
2021/03/17 01:34:47;;;;;;;4.83;0.90;;;;;;;;;;5078415;28;20499;-74
2021/03/17 01:37:15;;;;;;;8.50;1.43;;;;;;;;;;5076941;28;20475;-74
2021/03/17 01:39:42;;;;;;;7.33;1.87;;;;;;;;;;5079040;28;20453;-74
2021/03/17 01:42:09;;;;;;;2.40;1.30;;;;;;;;;;5079542;28;20517;-74
2021/03/17 01:44:37;;;;;;;2.80;1.37;;;;;;;;;;5077377;28;20484;-74
2021/03/17 01:47:04;;;;;;;5.33;1.63;;;;;;;;;;5079963;28;20474;-74
2021/03/17 01:49:32;;;;;;;3.60;1.60;;;;;;;;;;5078244;28;20449;-74
2021/03/17 01:52:00;;;;;;;2.90;1.37;;;;;;;;;;5079173;28;20756;-74
2021/03/17 01:54:27;;;;;;;4.00;1.30;;;;;;;;;;5079693;28;20468;-73
2021/03/17 01:56:54;;;;;;;7.50;1.40;;;;;;;;;;5077386;28;20481;-74
2021/03/17 01:59:22;;;;;;;6.23;1.10;;;;;;;;;;5079374;28;20457;-74
2021/03/17 02:01:50;;;;;;;3.40;1.70;;;;;;;;;;5078474;28;20465;-74
2021/03/17 02:04:17;;;;;;;3.83;1.00;;;;;;;;;;5077646;28;20477;-74
2021/03/17 02:06:46;;;;;;;10.43;1.37;;;;;;;;;;5078059;28;20460;-74
2021/03/17 02:09:19;;;;;;;4.20;1.57;;;;;;;;;;5077786;28;20452;-74
2021/03/17 02:11:54;;;;;;;8.23;1.50;;;;;;;;;;5080007;28;20746;-74
2021/03/17 02:14:27;;;;;;;3.73;1.40;;;;;;;;;;5078060;28;20461;-74
2021/03/17 02:16:58;;;;;;;3.40;1.10;;;;;;;;;;5078301;28;20523;-74
2021/03/17 02:19:43;;;;;;;10.47;2.50;;;;;;;;;;5078680;28;20457;-74
2021/03/17 02:22:37;;;;;;;9.10;1.40;;;;;;;;;;5077094;28;20472;-74
2021/03/17 02:25:10;;;;;;;5.57;1.37;;;;;;;;;;5055032;28;20574;-74
2021/03/17 02:27:44;;;;;;;4.87;2.03;;;;;;;;;;5079340;28;20579;-74
2021/03/17 02:30:34;;;;;;;2.40;1.53;;;;;;;;;;5076933;28;20457;-74
2021/03/17 02:33:28;;;;;;;3.23;1.43;;;;;;;;;;5078633;28;20469;-75
2021/03/17 02:36:01;;;;;;;4.60;1.67;;;;;;;;;;5079631;28;20456;-74
2021/03/17 02:38:28;;;;;;;2.77;1.20;;;;;;;;;;5077630;28;20548;-74
2021/03/17 02:40:58;;;;;;;2.63;1.33;;;;;;;;;;5079763;28;20454;-74
2021/03/17 02:43:29;;;;;;;3.23;1.13;;;;;;;;;;5079178;28;20540;-74
2021/03/17 02:45:59;;;;;;;4.47;2.23;;;;;;;;;;5076848;28;20463;-74
2021/03/17 02:48:28;;;;;;;3.90;1.63;;;;;;;;;;5079996;28;20532;-73
2021/03/17 02:50:56;;;;;;;3.93;1.70;;;;;;;;;;5082405;28;20534;-74
2021/03/17 02:53:27;;;;;;;4.60;1.03;;;;;;;;;;5081043;28;20475;-74
2021/03/17 02:55:58;;;;;;;4.13;1.83;;;;;;;;;;5082345;28;20547;-74
2021/03/17 02:58:25;;;;;;;3.50;1.50;;;;;;;;;;5081639;28;20467;-74
2021/03/17 03:00:53;;;;;;;3.83;1.60;;;;;;;;;;5081228;28;20861;-74
2021/03/17 03:03:21;;;;;;;5.63;1.20;;;;;;;;;;5081422;28;20461;-74
2021/03/17 03:05:50;;;;;;;6.10;1.47;;;;;;;;;;5080321;28;20457;-74
2021/03/17 03:08:18;;;;;;;11.57;2.00;;;;;;;;;;5082837;28;20466;-74
2021/03/17 03:10:48;;;;;;;8.63;2.17;;;;;;;;;;5081990;28;20476;-74
2021/03/17 03:13:15;;;;;;;5.50;1.57;;;;;;;;;;5080764;28;20523;-74
2021/03/17 03:15:43;;;;;;;3.97;1.60;;;;;;;;;;5082658;28;20582;-74
2021/03/17 03:18:11;;;;;;;6.50;1.67;;;;;;;;;;5080174;28;20903;-73
2021/03/17 03:20:38;;;;;;;2.90;1.40;;;;;;;;;;5082817;28;20453;-74
2021/03/17 03:23:06;;;;;;;6.87;2.30;;;;;;;;;;5080937;28;20526;-74
2021/03/17 03:25:34;;;;;;;9.93;1.97;;;;;;;;;;5081545;28;20455;-74
2021/03/17 03:28:11;;;;;;;6.30;1.37;;;;;;;;;;5082548;28;20499;-74
2021/03/17 03:30:40;;;;;;;13.97;4.30;;;;;;;;;;5080233;28;20459;-74
2021/03/17 03:33:08;;;;;;;5.13;1.40;;;;;;;;;;5083344;28;20461;-74
2021/03/17 03:35:35;;;;;;;5.73;1.40;;;;;;;;;;5079630;28;20457;-74
2021/03/17 03:38:04;;;;;;;5.90;1.73;;;;;;;;;;5080038;28;21088;-74
2021/03/17 03:40:31;;;;;;;3.00;1.70;;;;;;;;;;5081633;28;20522;-74
2021/03/17 03:42:59;;;;;;;4.60;1.40;;;;;;;;;;5079175;28;20542;-74
2021/03/17 03:45:27;;;;;;;4.10;1.60;;;;;;;;;;5081258;28;20903;-74
2021/03/17 03:47:55;;;;;;;6.23;1.57;;;;;;;;;;5082314;28;20463;-74
2021/03/17 03:50:23;;;;;;;4.90;1.90;;;;;;;;;;5079243;28;20838;-74
2021/03/17 03:52:56;;;;;;;4.67;1.60;;;;;;;;;;5080995;28;20984;-74
2021/03/17 03:55:26;;;;;;;5.87;2.00;;;;;;;;;;5081270;28;20468;-74
2021/03/17 03:57:54;;;;;;;9.30;1.67;;;;;;;;;;5080043;28;20472;-74
2021/03/17 04:03:26;;;;;;;3.70;1.40;;;;;;;;;;5081136;28;20442;-73
2021/03/17 04:05:54;;;;;;;6.23;1.40;;;;;;;;;;5079788;28;20870;-74
2021/03/17 04:08:23;;;;;;;7.37;2.20;;;;;;;;;;5081319;28;20478;-74
2021/03/17 04:10:54;;;;;;;8.13;2.17;;;;;;;;;;5080393;28;20471;-73
2021/03/17 04:13:22;;;;;;;6.07;2.20;;;;;;;;;;5059250;28;20747;-73
2021/03/17 04:15:50;;;;;;;6.40;2.00;;;;;;;;;;5060835;28;20485;-73
2021/03/17 04:18:19;;;;;;;2.93;1.50;;;;;;;;;;5060089;28;20631;-74
2021/03/17 04:20:48;;;;;;;7.70;2.20;;;;;;;;;;5059360;28;20454;-74
2021/03/17 04:23:18;;;;;;;9.53;3.50;;;;;;;;;;5060649;28;20854;-73
2021/03/17 04:25:47;;;;;;;5.33;1.37;;;;;;;;;;5059288;28;20461;-73
2021/03/17 04:28:16;;;;;;;4.30;1.73;;;;;;;;;;5060337;28;20469;-73
2021/03/17 04:30:44;;;;;;;8.20;1.47;;;;;;;;;;5061747;28;20540;-74
2021/03/17 04:33:12;;;;;;;4.93;1.90;;;;;;;;;;5058430;28;20445;-73
2021/03/17 04:35:40;;;;;;;3.23;1.20;;;;;;;;;;5060567;28;20721;-73
2021/03/17 04:38:08;;;;;;;4.50;1.73;;;;;;;;;;5059045;28;20464;-73
2021/03/17 04:40:37;;;;;;;8.07;1.83;;;;;;;;;;5060575;28;20459;-73
2021/03/17 04:43:05;;;;;;;3.67;1.47;;;;;;;;;;5060286;28;20472;-73
2021/03/17 04:45:34;;;;;;;4.40;1.80;;;;;;;;;;5059094;28;20634;-74
2021/03/17 04:48:03;;;;;;;4.97;1.10;;;;;;;;;;5059463;28;20884;-73
2021/03/17 04:50:38;;;;;;;2.33;1.07;;;;;;;;;;5059531;28;21074;-73
2021/03/17 04:53:08;;;;;;;8.43;1.57;;;;;;;;;;5059434;28;20468;-73
2021/03/17 04:55:37;;;;;;;1.73;1.10;;;;;;;;;;5059179;28;20454;-73
2021/03/17 04:58:05;;;;;;;6.03;1.20;;;;;;;;;;5058161;28;20472;-73
2021/03/17 05:00:33;;;;;;;2.80;1.23;;;;;;;;;;5058723;28;20494;-73
2021/03/17 05:03:02;;;;;;;3.07;1.67;;;;;;;;;;5059049;28;20504;-74
2021/03/17 05:05:30;;;;;;;3.00;1.57;;;;;;;;;;5057891;28;20778;-73
2021/03/17 05:07:58;;;;;;;5.27;1.73;;;;;;;;;;5058842;28;20468;-73
2021/03/17 05:10:30;;;;;;;8.43;1.30;;;;;;;;;;5056045;28;20888;-73
2021/03/17 05:12:59;;;;;;;7.43;1.53;;;;;;;;;;5055449;28;20468;-73
2021/03/17 05:15:32;;;;;;;5.23;1.83;;;;;;;;;;5056570;28;20465;-73
2021/03/17 05:18:00;;;;;;;8.03;1.83;;;;;;;;;;5057035;28;20866;-72
2021/03/17 05:20:30;;;;;;;3.30;1.27;;;;;;;;;;5056619;28;20486;-72
2021/03/17 05:23:01;;;;;;;4.07;1.50;;;;;;;;;;5056631;28;20465;-73
2021/03/17 05:25:33;;;;;;;4.43;1.83;;;;;;;;;;5056348;28;20516;-73
2021/03/17 05:28:04;;;;;;;2.57;1.20;;;;;;;;;;5057783;28;20460;-73
2021/03/17 05:30:36;;;;;;;9.83;1.73;;;;;;;;;;5056619;28;20453;-73
2021/03/17 05:33:05;;;;;;;3.93;1.30;;;;;;;;;;5056719;28;20505;-73
2021/03/17 05:35:32;;;;;;;6.20;1.87;;;;;;;;;;5056767;28;20493;-73
2021/03/17 05:38:00;;;;;;;2.93;1.53;;;;;;;;;;5057444;28;20551;-72
2021/03/17 05:40:28;;;;;;;2.70;1.60;;;;;;;;;;5058201;28;20459;-73
2021/03/17 05:42:56;;;;;;;9.90;1.87;;;;;;;;;;5056479;28;20460;-73
2021/03/17 05:45:26;;;;;;;4.10;2.00;;;;;;;;;;5056750;28;20478;-74
2021/03/17 05:47:54;;;;;;;3.53;1.60;;;;;;;;;;5056935;28;20488;-73
2021/03/17 05:50:24;;;;;;;3.67;1.73;;;;;;;;;;5057186;28;20490;-73
2021/03/17 05:52:53;;;;;;;5.60;2.20;;;;;;;;;;5056860;28;20465;-74
2021/03/17 05:55:20;;;;;;;6.33;2.70;;;;;;;;;;5056813;28;20572;-73
2021/03/17 05:57:48;;;;;;;4.17;2.20;;;;;;;;;;5056456;28;20458;-73
2021/03/17 06:00:16;;;;;;;2.90;1.80;;;;;;;;;;5055721;28;20587;-73
2021/03/17 06:02:44;;;;;;;5.83;2.10;;;;;;;;;;5055942;28;20465;-73
2021/03/17 06:05:12;;;;;;;4.20;1.60;;;;;;;;;;5055365;28;20983;-73
2021/03/17 06:07:43;;;;;;;6.63;2.20;;;;;;;;;;5056154;28;20449;-73
2021/03/17 06:10:11;;;;;;;5.33;2.60;;;;;;;;;;5056054;28;20482;-73
2021/03/17 06:12:39;;;;;;;6.30;4.30;;;;;;;;;;5055742;28;20789;-73
2021/03/17 06:15:10;;;;;;;7.20;4.43;;;;;;;;;;5056391;28;20518;-73
2021/03/17 06:17:40;;;;;;;4.57;2.80;;;;;;;;;;5056760;28;20526;-73
2021/03/17 06:20:11;;;;;;;5.30;2.67;;;;;;;;;;5072827;28;20467;-73
2021/03/17 06:22:38;;;;;;;6.90;2.23;;;;;;;;;;5076243;28;20457;-73
2021/03/17 06:25:08;;;;;;;7.30;2.70;;;;;;;;;;5077990;28;20496;-74
2021/03/17 06:27:40;;;;;;;3.63;2.43;;;;;;;;;;5068868;28;20448;-74
2021/03/17 06:30:15;;;;;;;8.03;3.07;;;;;;;;;;5079521;28;20451;-74
2021/03/17 06:32:43;;;;;;;5.43;2.17;;;;;;;;;;5078345;28;20565;-73
2021/03/17 06:35:18;;;;;;;8.20;2.40;;;;;;;;;;5079806;28;20477;-73
2021/03/17 06:37:46;;;;;;;6.93;3.60;;;;;;;;;;5074982;28;20469;-74
2021/03/17 06:40:24;;;;;;;11.93;4.57;;;;;;;;;;5076814;28;20514;-73
2021/03/17 06:42:51;;;;;;;12.87;3.97;;;;;;;;;;5078918;28;20936;-73
2021/03/17 06:45:30;;;;;;;10.20;5.07;;;;;;;;;;5079805;28;20536;-74
2021/03/17 06:48:18;;;;;;;12.87;5.10;;;;;;;;;;5079567;28;20467;-73
2021/03/17 06:50:48;;;;;;;15.43;5.17;;;;;;;;;;5080046;28;20805;-73
2021/03/17 06:53:37;;;;;;;14.43;5.50;;;;;;;;;;5079810;28;20452;-73
2021/03/17 06:56:27;;;;;;;;;;;;;;;;;;;;;
2021/03/17 06:58:56;;;;;;;9.00;3.00;;;;;;;;;;5056372;28;20468;-73
2021/03/17 07:01:24;;;;;;;9.40;3.57;;;;;;;;;;5077589;28;20730;-74
2021/03/17 07:03:54;;;;;;;10.03;3.43;;;;;;;;;;5057779;28;20511;-74
2021/03/17 07:06:31;;;;;;;8.20;3.10;;;;;;;;;;5058825;28;20486;-74
2021/03/17 07:09:02;;;;;;;8.67;3.70;;;;;;;;;;5058930;28;20464;-75
2021/03/17 07:11:30;;;;;;;7.00;2.40;;;;;;;;;;5060541;28;20472;-74
2021/03/17 07:14:02;;;;;;;8.47;3.47;;;;;;;;;;5060058;28;20537;-74
2021/03/17 07:16:35;;;;;;;6.00;2.70;;;;;;;;;;5076624;28;20946;-74
2021/03/17 07:19:07;;;;;;;5.83;2.70;;;;;;;;;;5068774;28;20561;-74
2021/03/17 07:21:51;;;;;;;8.13;2.70;;;;;;;;;;5057604;28;20480;-74
2021/03/17 07:24:28;;;;;;;6.47;3.40;;;;;;;;;;5057788;28;20575;-74
2021/03/17 07:27:14;;;;;;;10.47;4.40;;;;;;;;;;5058728;28;20897;-74
2021/03/17 07:29:44;;;;;;;10.77;2.87;;;;;;;;;;5056086;28;20887;-73
2021/03/17 07:32:17;;;;;;;13.43;5.60;;;;;;;;;;5059483;28;20483;-73
2021/03/17 07:35:00;;;;;;;6.40;2.60;;;;;;;;;;5094618;28;20485;-74
2021/03/17 07:37:41;;;;;;;7.27;3.03;;;;;;;;;;5097462;28;20534;-73
2021/03/17 07:40:11;;;;;;;7.70;2.90;;;;;;;;;;5096634;28;20476;-73
2021/03/17 07:42:45;;;;;;;10.27;3.20;;;;;;;;;;5097606;28;20456;-74
2021/03/17 07:45:17;;;;;;;8.07;2.70;;;;;;;;;;5097888;28;20582;-75
2021/03/17 07:47:48;;;;;;;7.53;2.30;;;;;;;;;;5097558;28;20940;-74
2021/03/17 07:50:22;;;;;;;5.90;2.90;;;;;;;;;;5079960;28;20461;-74
2021/03/17 07:52:54;;;;;;;3.97;2.70;;;;;;;;;;5061781;28;20534;-74
2021/03/17 07:55:22;;;;;;;4.90;1.60;;;;;;;;;;5076965;28;20457;-75
2021/03/17 07:57:55;;;;;;;5.20;1.90;;;;;;;;;;5076400;28;20888;-75
2021/03/17 08:00:31;;;;;;;3.93;1.60;;;;;;;;;;5075178;28;20461;-75
2021/03/17 08:03:00;;;;;;;2.53;1.63;;;;;;;;;;5077523;28;20586;-74
2021/03/17 08:05:36;;;;;;;9.20;1.97;;;;;;;;;;5076703;28;20771;-75
2021/03/17 08:08:08;;;;;;;6.43;2.03;;;;;;;;;;5061219;28;20446;-74
2021/03/17 08:10:39;;;;;;;7.17;2.67;;;;;;;;;;5060009;28;20461;-75
2021/03/17 08:13:11;;;;;;;7.00;2.10;;;;;;;;;;5056369;28;20484;-74
2021/03/17 08:15:42;;;;;;;3.10;1.70;;;;;;;;;;5056959;28;20560;-74
2021/03/17 08:18:26;;;;;;;13.83;4.00;;;;;;;;;;5055017;28;20502;-74
2021/03/17 08:20:57;;;;;;;9.37;3.73;;;;;;;;;;5055848;28;20520;-75
2021/03/17 08:23:45;;;;;;;9.83;1.80;;;;;;;;;;5069223;28;20773;-74
2021/03/17 08:26:35;;;;;;;4.60;1.87;;;;;;;;;;5077362;28;20924;-73
2021/03/17 08:29:04;;;;;;;5.03;2.10;;;;;;;;;;5068387;28;20465;-74
2021/03/17 08:31:53;;;;;;;13.17;3.10;;;;;;;;;;5068499;28;20465;-74
2021/03/17 08:34:33;;;;;;;5.93;2.40;;;;;;;;;;5058344;28;20557;-74
2021/03/17 08:37:17;;;;;;;3.40;2.10;;;;;;;;;;5068063;28;20457;-77
2021/03/17 08:39:53;;;;;;;8.90;2.73;;;;;;;;;;5061416;28;20868;-73
2021/03/17 08:42:40;;;;;;;6.33;2.80;;;;;;;;;;5057182;28;20488;-73
2021/03/17 08:45:19;;;;;;;5.40;1.93;;;;;;;;;;5072748;28;20477;-74
2021/03/17 08:47:52;;;;;;;7.23;2.50;;;;;;;;;;5064022;28;20458;-73
2021/03/17 08:50:31;;;;;;;6.93;2.57;;;;;;;;;;5057183;28;20862;-74
2021/03/17 08:53:04;;;;;;;11.33;2.03;;;;;;;;;;5056241;28;20455;-73
2021/03/17 08:55:44;;;;;;;8.47;2.60;;;;;;;;;;5056705;28;20465;-73
2021/03/17 08:58:27;;;;;;;12.73;2.80;;;;;;;;;;5068621;28;20787;-74
2021/03/17 09:00:58;;;;;;;7.87;2.80;;;;;;;;;;5073097;28;20940;-74
2021/03/17 09:03:57;;;;;;;5.90;2.27;;;;;;;;;;5057049;28;20525;-75
2021/03/17 09:06:29;;;;;;;10.07;2.40;;;;;;;;;;5055358;28;20490;-74
2021/03/17 09:09:01;;;;;;;6.10;2.60;;;;;;;;;;5055272;28;20537;-74
2021/03/17 09:11:58;;;;;;;5.50;2.60;;;;;;;;;;5076897;28;20453;-74
2021/03/17 09:14:35;;;;;;;3.80;2.33;;;;;;;;;;5056265;28;20453;-74
2021/03/17 09:17:13;;;;;;;10.30;2.30;;;;;;;;;;5055920;28;20478;-74
2021/03/17 09:20:06;;;;;;;5.77;2.50;;;;;;;;;;5073320;28;20610;-75
2021/03/17 09:22:38;;;;;;;11.70;3.20;;;;;;;;;;5042755;28;20469;-74
2021/03/17 09:25:17;;;;;;;8.80;2.97;;;;;;;;;;5055489;28;20488;-73
2021/03/17 09:27:52;;;;;;;6.67;2.73;;;;;;;;;;5056593;28;20449;-73
2021/03/17 09:30:24;;;;;;;9.13;3.10;;;;;;;;;;5056321;28;20475;-73
2021/03/17 09:33:01;;;;;;;7.53;2.17;;;;;;;;;;5054514;28;20612;-74
2021/03/17 09:35:31;;;;;;;9.13;2.83;;;;;;;;;;5055626;28;20896;-73
2021/03/17 09:38:03;;;;;;;5.57;2.70;;;;;;;;;;5054916;28;20558;-74
2021/03/17 09:40:34;;;;;;;6.97;2.50;;;;;;;;;;5054802;28;20895;-74
2021/03/17 09:43:03;;;;;;;4.13;2.80;;;;;;;;;;5056360;28;20505;-73
2021/03/17 09:45:31;;;;;;;9.33;2.07;;;;;;;;;;5055472;28;20561;-74
2021/03/17 09:48:00;;;;;;;7.90;3.60;;;;;;;;;;5055459;28;20459;-73
2021/03/17 09:50:30;;;;;;;6.03;2.33;;;;;;;;;;5057093;28;20827;-74
2021/03/17 09:53:01;;;;;;;4.00;2.13;;;;;;;;;;5057845;28;20456;-75
2021/03/17 09:55:33;;;;;;;7.73;2.70;;;;;;;;;;5060571;28;20470;-75
2021/03/17 09:58:07;;;;;;;15.40;3.17;;;;;;;;;;5056582;28;20618;-74
2021/03/17 10:00:47;;;;;;;7.97;2.40;;;;;;;;;;5065044;28;20572;-75
2021/03/17 10:03:16;;;;;;;7.63;2.77;;;;;;;;;;5080917;28;20450;-74
2021/03/17 10:05:49;;;;;;;8.20;5.37;;;;;;;;;;5078574;28;20488;-74
2021/03/17 10:08:22;;;;;;;5.87;3.00;;;;;;;;;;5081514;28;20448;-74
2021/03/17 10:11:03;;;;;;;4.17;2.30;;;;;;;;;;5068559;28;20473;-75
2021/03/17 10:13:39;;;;;;;7.80;4.40;;;;;;;;;;5067924;28;20458;-74
2021/03/17 10:16:35;;;;;;;4.10;3.10;;;;;;;;;;5076893;28;20560;-74
2021/03/17 10:19:13;;;;;;;6.20;3.40;;;;;;;;;;5061820;28;20450;-73
2021/03/17 10:21:41;;;;;;;11.00;3.47;;;;;;;;;;5057875;28;20466;-74
2021/03/17 10:24:11;;;;;;;5.80;3.00;;;;;;;;;;5077244;28;20571;-73
2021/03/17 10:26:39;;;;;;;5.53;2.87;;;;;;;;;;5079661;28;20447;-73
2021/03/17 10:29:08;;;;;;;7.43;2.73;;;;;;;;;;5078591;28;20750;-74
2021/03/17 10:31:39;;;;;;;4.77;2.47;;;;;;;;;;5060296;28;20463;-73
2021/03/17 10:34:25;;;;;;;8.27;3.30;;;;;;;;;;5059308;28;20534;-74
2021/03/17 10:36:53;;;;;;;10.80;3.23;;;;;;;;;;5060224;28;20884;-73
2021/03/17 10:39:25;;;;;;;5.90;3.47;;;;;;;;;;5060927;28;20531;-73
2021/03/17 10:41:58;;;;;;;6.00;3.30;;;;;;;;;;5064641;28;21104;-73
2021/03/17 10:44:26;;;;;;;4.37;2.13;;;;;;;;;;5059605;28;20491;-74
2021/03/17 10:47:05;;;;;;;5.30;3.80;;;;;;;;;;5060147;28;20753;-73
2021/03/17 10:49:38;;;;;;;9.03;3.97;;;;;;;;;;5057956;28;20454;-74
2021/03/17 10:52:06;;;;;;;9.00;3.37;;;;;;;;;;5062474;28;20458;-74
2021/03/17 10:54:37;;;;;;;5.90;2.80;;;;;;;;;;5072941;28;20454;-73
2021/03/17 10:57:09;;;;;;;14.50;4.07;;;;;;;;;;5061543;28;20512;-74
2021/03/17 10:59:56;;;;;;;9.13;4.07;;;;;;;;;;5059072;28;20541;-73
2021/03/17 11:02:26;;;;;;;5.77;3.10;;;;;;;;;;5065332;28;20451;-74
2021/03/17 11:05:17;;;;;;;11.10;3.63;;;;;;;;;;5074922;28;20586;-74
2021/03/17 11:08:06;;;;;;;10.40;3.30;;;;;;;;;;5076762;28;20467;-73
2021/03/17 11:10:49;;;;;;;5.50;4.00;;;;;;;;;;5074446;28;20450;-73
2021/03/17 11:13:27;;;;;;;10.00;3.53;;;;;;;;;;5078007;28;20733;-73
2021/03/17 11:15:55;;;;;;;7.80;3.63;;;;;;;;;;5078773;28;20719;-73
2021/03/17 11:18:23;;;;;;;10.53;4.17;;;;;;;;;;5075658;28;20775;-73
2021/03/17 11:20:52;;;;;;;5.17;3.53;;;;;;;;;;5076228;28;20537;-73
2021/03/17 11:23:30;;;;;;;;;;;;;;;;;;;;;
2021/03/17 11:28:59;;;;;;;5.30;3.37;;;;;;;;;;5071306;28;20481;-73
2021/03/17 11:31:31;;;;;;;7.87;3.50;;;;;;;;;;5078761;28;20456;-73
2021/03/17 11:34:11;;;;;;;7.13;3.93;;;;;;;;;;5065116;28;20883;-74
2021/03/17 11:36:53;;;;;;;11.20;4.67;;;;;;;;;;5059948;28;20857;-73
2021/03/17 11:39:22;;;;;;;9.73;4.03;;;;;;;;;;5066677;28;20558;-73
2021/03/17 11:41:58;;;;;;;8.00;3.40;;;;;;;;;;5066758;28;20705;-73
2021/03/17 11:44:26;;;;;;;7.10;4.23;;;;;;;;;;5066771;28;20486;-73
2021/03/17 11:46:55;;;;;;;7.47;4.30;;;;;;;;;;5066469;28;20469;-73
2021/03/17 11:49:31;;;;;;;10.10;5.00;;;;;;;;;;5069487;28;20509;-73
2021/03/17 11:52:16;;;;;;;5.90;4.03;;;;;;;;;;5064134;28;20464;-73
2021/03/17 11:54:45;;;;;;;6.60;4.60;;;;;;;;;;5058006;28;20517;-73
2021/03/17 12:02:45;;;;;;;6.83;3.63;;;;;;;;;;5056298;28;20480;-74
2021/03/17 12:05:20;;;;;;;6.87;4.00;;;;;;;;;;5059082;28;20893;-73
2021/03/17 12:07:48;;;;;;;6.60;2.93;;;;;;;;;;5058124;28;20482;-73
2021/03/17 12:10:20;;;;;;;6.93;3.20;;;;;;;;;;5057422;28;20470;-73
2021/03/17 12:12:47;;;;;;;8.20;3.70;;;;;;;;;;5064309;28;20546;-73
2021/03/17 12:15:19;;;;;;;3.83;2.97;;;;;;;;;;5062523;28;20508;-73
2021/03/17 12:17:46;;;;;;;6.07;3.57;;;;;;;;;;5057939;28;20471;-73
2021/03/17 12:20:14;;;;;;;4.80;2.70;;;;;;;;;;5057710;28;20458;-73
2021/03/17 12:22:46;;;;;;;6.13;2.80;;;;;;;;;;5072052;28;20467;-73
2021/03/17 12:25:16;;;;;;;6.63;2.97;;;;;;;;;;5056677;28;20536;-73
2021/03/17 12:28:03;;;;;;;6.83;3.30;;;;;;;;;;5060032;28;20495;-73
2021/03/17 12:30:31;;;;;;;5.53;2.53;;;;;;;;;;5065136;28;20460;-73
2021/03/17 12:32:58;;;;;;;8.63;3.80;;;;;;;;;;5063823;28;20773;-73
2021/03/17 12:35:27;;;;;;;5.40;3.03;;;;;;;;;;5057988;28;20463;-73
2021/03/17 12:37:55;;;;;;;10.60;3.87;;;;;;;;;;5056845;28;20503;-73
2021/03/17 12:40:24;;;;;;;6.93;2.77;;;;;;;;;;5056299;28;20857;-73
2021/03/17 12:42:52;;;;;;;7.60;4.40;;;;;;;;;;5054535;28;20463;-72
2021/03/17 12:45:23;;;;;;;8.37;2.57;;;;;;;;;;5056368;28;20558;-73
2021/03/17 12:48:11;;;;;;;6.03;2.60;;;;;;;;;;5061419;28;20464;-72
2021/03/17 12:50:41;;;;;;;5.20;2.97;;;;;;;;;;5081940;28;20455;-73
2021/03/17 12:53:13;;;;;;;5.40;2.77;;;;;;;;;;5097796;28;20464;-73
2021/03/17 12:55:49;;;;;;;6.40;4.13;;;;;;;;;;5097507;28;20467;-73
2021/03/17 12:58:25;;;;;;;11.10;3.43;;;;;;;;;;5097017;28;20464;-74
2021/03/17 13:00:58;;;;;;;9.40;2.50;;;;;;;;;;5079705;28;20886;-73
2021/03/17 13:03:55;;;;;;;4.70;2.97;;;;;;;;;;5070966;28;20465;-73
2021/03/17 13:06:25;;;;;;;7.90;3.83;;;;;;;;;;5077100;28;20565;-73
2021/03/17 13:09:01;;;;;;;12.47;3.07;;;;;;;;;;5077665;28;20484;-73
2021/03/17 13:12:03;;;;;;;9.47;3.43;;;;;;;;;;5075305;28;20474;-72
2021/03/17 13:14:41;;;;;;;9.60;3.20;;;;;;;;;;5077458;28;20485;-73
2021/03/17 13:20:25;;;;;;;5.17;2.90;;;;;;;;;;5073973;28;21073;-72
2021/03/17 13:23:06;;;;;;;8.83;3.00;;;;;;;;;;5056154;28;20457;-73
2021/03/17 13:25:34;;;;;;;7.07;2.60;;;;;;;;;;5057212;28;20493;-73
2021/03/17 13:28:05;;;;;;;8.40;2.97;;;;;;;;;;5056873;28;20476;-72
2021/03/17 13:30:50;;;;;;;9.90;3.30;;;;;;;;;;5058797;28;20575;-74
2021/03/17 13:33:17;;;;;;;16.40;3.90;;;;;;;;;;5077593;28;20441;-73
2021/03/17 13:35:49;;;;;;;5.30;3.00;;;;;;;;;;5076674;28;20474;-73
2021/03/17 13:38:17;;;;;;;6.53;3.40;;;;;;;;;;5074715;28;20471;-72
2021/03/17 13:41:07;;;;;;;4.93;1.93;;;;;;;;;;5075583;28;20461;-72
2021/03/17 13:43:37;;;;;;;11.90;8.73;;;;;;;;;;5074169;28;20465;-72
2021/03/17 13:46:10;;;;;;;6.53;2.60;;;;;;;;;;5075061;28;20779;-72
2021/03/17 13:48:42;;;;;;;7.80;3.17;;;;;;;;;;5074361;28;20453;-74
2021/03/17 13:51:10;;;;;;;5.10;2.63;;;;;;;;;;5074831;28;20461;-73
2021/03/17 13:53:37;;;;;;;4.43;2.30;;;;;;;;;;5075478;28;20454;-72
2021/03/17 13:56:07;;;;;;;8.73;2.27;;;;;;;;;;5075735;28;20466;-72
2021/03/17 13:58:38;;;;;;;9.90;2.33;;;;;;;;;;5077157;28;20458;-73
2021/03/17 14:01:09;;;;;;;4.30;2.27;;;;;;;;;;5074928;28;20469;-74
2021/03/17 14:03:37;;;;;;;4.03;2.60;;;;;;;;;;5056493;28;20922;-74
2021/03/17 14:06:05;;;;;;;4.60;2.70;;;;;;;;;;5057403;28;20555;-73
2021/03/17 14:08:33;;;;;;;5.13;2.53;;;;;;;;;;5056244;28;20466;-74
2021/03/17 14:11:00;;;;;;;4.20;2.20;;;;;;;;;;5056061;28;20732;-74
2021/03/17 14:13:28;;;;;;;3.90;2.13;;;;;;;;;;5056548;28;20478;-73
2021/03/17 14:15:55;;;;;;;4.30;2.30;;;;;;;;;;5071066;28;20454;-73
2021/03/17 14:18:24;;;;;;;3.87;2.37;;;;;;;;;;5072753;28;20472;-73
2021/03/17 14:20:53;;;;;;;3.30;2.47;;;;;;;;;;5066356;28;20470;-73
2021/03/17 14:23:21;;;;;;;3.53;1.77;;;;;;;;;;5056865;28;20538;-72
2021/03/17 14:25:48;;;;;;;3.67;1.90;;;;;;;;;;5057480;28;20485;-73
2021/03/17 14:28:16;;;;;;;3.73;1.90;;;;;;;;;;5054721;28;20470;-73
2021/03/17 14:30:43;;;;;;;3.10;1.60;;;;;;;;;;5070148;28;20452;-73
2021/03/17 14:33:16;;;;;;;3.50;1.57;;;;;;;;;;5076526;28;20793;-72
2021/03/17 14:35:46;;;;;;;2.47;1.60;;;;;;;;;;5073956;28;20965;-72
2021/03/17 14:38:13;;;;;;;3.47;1.50;;;;;;;;;;5064926;28;20468;-73
2021/03/17 14:40:41;;;;;;;6.20;2.00;;;;;;;;;;5061380;28;20445;-73
2021/03/17 14:43:10;;;;;;;3.80;1.60;;;;;;;;;;5076121;28;20502;-73
2021/03/17 14:45:39;;;;;;;4.63;1.30;;;;;;;;;;5077275;28;20488;-73
2021/03/17 14:48:06;;;;;;;6.00;1.50;;;;;;;;;;5077909;28;20537;-74
2021/03/17 14:50:35;;;;;;;2.80;1.10;;;;;;;;;;5078172;28;20921;-74
2021/03/17 14:53:04;;;;;;;2.03;1.17;;;;;;;;;;5079079;28;20710;-74
2021/03/17 14:55:33;;;;;;;2.10;1.60;;;;;;;;;;5079031;28;20476;-74
2021/03/17 14:58:12;;;;;;;2.60;1.40;;;;;;;;;;5073341;28;20477;-75
2021/03/17 15:00:42;;;;;;;1.80;1.47;;;;;;;;;;5065186;28;20503;-75
2021/03/17 15:03:25;;;;;;;2.43;1.60;;;;;;;;;;5059648;28;20451;-74
2021/03/17 15:05:52;;;;;;;3.53;1.57;;;;;;;;;;5059516;28;20508;-74
2021/03/17 15:08:21;;;;;;;2.63;1.57;;;;;;;;;;5061384;28;20453;-73
2021/03/17 15:10:50;;;;;;;3.77;1.80;;;;;;;;;;5057756;28;20515;-74
2021/03/17 15:13:17;;;;;;;2.30;1.30;;;;;;;;;;5060254;28;20455;-73
2021/03/17 15:15:45;;;;;;;1.97;1.20;;;;;;;;;;5059332;28;20953;-73
2021/03/17 15:18:15;;;;;;;3.20;1.90;;;;;;;;;;5058413;28;20484;-73
2021/03/17 15:20:45;;;;;;;4.63;1.57;;;;;;;;;;5060245;28;20461;-73
2021/03/17 15:23:13;;;;;;;3.50;1.83;;;;;;;;;;5058066;28;20560;-73
2021/03/17 15:25:41;;;;;;;3.13;1.80;;;;;;;;;;5070166;28;20491;-73